createdAt,value
2023-02-06T04:02:32.880Z,100.00
2023-02-06T04:05:42.883Z,100.00
2023-02-06T04:08:52.613Z,100.00
2023-02-06T04:12:02.190Z,100.00
2023-02-06T04:15:12.155Z,100.00
2023-02-06T04:18:23.855Z,100.00
2023-02-06T04:21:33.646Z,100.00
2023-02-06T04:24:43.962Z,100.00
2023-02-06T04:27:53.839Z,100.00
2023-02-06T04:31:03.530Z,100.00
2023-02-06T04:34:14.693Z,100.00
2023-02-06T04:37:24.296Z,100.00
2023-02-06T04:40:33.886Z,100.00
2023-02-06T04:43:43.422Z,100.00
2023-02-06T04:46:53.262Z,100.00
2023-02-06T04:50:04.439Z,100.00
2023-02-06T04:53:14.042Z,100.00
2023-02-06T04:56:25.420Z,100.00
2023-02-06T04:59:35.189Z,100.00
2023-02-06T05:02:44.795Z,100.00
2023-02-06T05:05:56.497Z,100.00
2023-02-06T05:09:06.708Z,100.00
2023-02-06T05:12:16.277Z,100.00
2023-02-06T05:15:25.843Z,100.00
2023-02-06T05:18:35.986Z,100.00
2023-02-06T05:21:46.825Z,100.00
2023-02-06T05:24:56.430Z,100.00
2023-02-06T05:28:07.271Z,100.00
2023-02-06T05:31:19.874Z,100.00
2023-02-06T05:34:29.682Z,100.00
2023-02-06T05:37:40.699Z,100.00
2023-02-06T05:40:52.482Z,100.00
2023-02-06T05:44:02.072Z,100.00
2023-02-06T05:47:11.618Z,100.00
2023-02-06T05:50:21.870Z,100.00
2023-02-06T05:53:32.894Z,100.00
2023-02-06T05:56:42.567Z,100.00
2023-02-06T05:59:52.165Z,100.00
2023-02-06T06:10:46.979Z,100.00
2023-02-06T06:13:56.595Z,100.00
2023-02-06T06:17:06.244Z,100.00
2023-02-06T06:20:15.824Z,100.00
2023-02-06T06:23:25.420Z,100.00
2023-02-06T06:26:36.546Z,100.00
2023-02-06T06:29:46.162Z,100.00
2023-02-06T06:32:56.040Z,100.00
2023-02-06T06:36:06.426Z,100.00
2023-02-06T06:39:16.063Z,100.00
2023-02-06T06:42:27.120Z,100.00
2023-02-06T06:45:37.026Z,100.00
2023-02-06T06:48:46.886Z,100.00
2023-02-06T06:51:56.429Z,100.00
2023-02-06T06:55:06.443Z,100.00
2023-02-06T06:58:17.292Z,100.00
2023-02-06T07:01:27.030Z,100.00
2023-02-06T07:04:36.613Z,100.00
2023-02-06T07:07:46.238Z,100.00
2023-02-06T07:10:55.891Z,100.00
2023-02-06T07:14:07.145Z,100.00
2023-02-06T07:17:16.733Z,100.00
2023-02-06T07:20:26.543Z,100.00
2023-02-06T07:23:37.911Z,100.00
2023-02-06T07:26:47.554Z,100.00
2023-02-06T07:29:59.626Z,100.00
2023-02-06T07:33:09.212Z,100.00
2023-02-06T07:36:19.429Z,100.00
2023-02-06T07:39:29.299Z,100.00
2023-02-06T07:42:40.175Z,100.00
2023-02-06T07:46:01.961Z,100.00
2023-02-06T07:49:12.903Z,100.00
2023-02-06T07:52:24.726Z,100.00
2023-02-06T07:55:36.716Z,100.00
2023-02-06T07:58:51.785Z,100.00
2023-02-06T08:02:02.602Z,100.00
2023-02-06T08:05:12.702Z,100.00
2023-02-06T08:08:22.293Z,100.00
2023-02-06T08:11:32.599Z,100.00
2023-02-06T08:14:45.542Z,100.00
2023-02-06T08:17:56.820Z,100.00
2023-02-06T08:21:08.441Z,100.00
2023-02-06T08:24:18.392Z,100.00
2023-02-06T08:27:28.171Z,100.00
2023-02-06T08:30:37.861Z,100.00
2023-02-06T08:33:48.995Z,100.00
2023-02-06T08:36:58.600Z,100.00
2023-02-06T08:40:09.114Z,100.00
2023-02-06T08:43:18.747Z,100.00
2023-02-06T08:46:31.999Z,100.00
2023-02-06T08:49:43.294Z,100.00
2023-02-06T08:52:52.916Z,100.00
2023-02-06T08:56:04.226Z,100.00
2023-02-06T08:59:15.062Z,100.00
2023-02-06T09:02:24.861Z,100.00
2023-02-06T09:05:36.015Z,100.00
2023-02-06T09:08:45.840Z,100.00
2023-02-06T09:12:02.032Z,99.11
2023-02-06T09:15:11.870Z,98.69
2023-02-06T09:18:21.421Z,99.64
2023-02-06T09:21:34.926Z,98.66
2023-02-06T09:24:44.571Z,98.64
2023-02-06T09:27:56.202Z,97.32
2023-02-06T09:31:08.595Z,94.18
2023-02-06T09:34:18.364Z,94.18
2023-02-06T09:37:29.271Z,95.49
2023-02-06T09:40:38.991Z,94.67
2023-02-06T09:43:52.353Z,92.73
2023-02-06T09:47:06.774Z,88.88
2023-02-06T09:50:25.018Z,87.09
2023-02-06T09:53:47.645Z,88.87
2023-02-06T09:57:02.706Z,88.15
2023-02-06T10:00:28.384Z,90.59
2023-02-06T10:03:54.412Z,90.51
2023-02-06T10:07:16.368Z,91.29
2023-02-06T10:10:36.700Z,89.92
2023-02-06T10:13:51.133Z,89.37
2023-02-06T10:17:03.886Z,89.39
2023-02-06T10:20:19.048Z,87.42
2023-02-06T10:23:35.261Z,88.51
2023-02-06T10:26:48.385Z,85.48
2023-02-06T10:29:58.015Z,82.59
2023-02-06T10:33:25.321Z,83.33
2023-02-06T10:36:49.202Z,79.74
2023-02-06T10:40:15.564Z,81.31
2023-02-06T10:43:40.325Z,78.90
2023-02-06T10:46:51.767Z,79.78
2023-02-06T10:50:08.353Z,78.41
2023-02-06T10:53:23.745Z,76.66
2023-02-06T10:56:39.924Z,73.46
2023-02-06T10:59:54.004Z,73.91
2023-02-06T11:03:08.309Z,73.83
2023-02-06T11:06:21.877Z,71.35
2023-02-06T11:09:32.210Z,70.93
2023-02-06T11:12:44.744Z,71.37
2023-02-06T11:16:02.740Z,71.47
2023-02-06T11:19:17.804Z,72.40
2023-02-06T11:22:29.612Z,75.13
2023-02-06T11:29:27.400Z,72.74
2023-02-06T11:32:52.881Z,69.45
2023-02-06T11:36:24.799Z,69.26
2023-02-06T11:39:36.772Z,68.69
2023-02-06T11:42:49.488Z,66.31
2023-02-06T11:46:09.937Z,67.05
2023-02-06T11:49:26.931Z,67.41
2023-02-06T11:52:36.576Z,65.19
2023-02-06T11:55:58.364Z,65.59
2023-02-06T11:59:19.077Z,67.39
2023-02-06T12:02:31.059Z,69.61
2023-02-06T12:05:43.040Z,69.05
2023-02-06T12:08:55.203Z,67.52
2023-02-06T12:12:09.197Z,68.05
2023-02-06T12:15:45.336Z,68.37
2023-02-06T12:18:57.422Z,69.28
2023-02-06T12:22:14.713Z,69.29
2023-02-06T12:25:31.295Z,69.81
2023-02-06T12:28:51.696Z,69.92
2023-02-06T12:32:08.217Z,68.50
2023-02-06T12:35:24.589Z,66.13
2023-02-06T12:38:44.108Z,67.72
2023-02-06T12:42:13.137Z,65.55
2023-02-06T12:45:33.976Z,68.81
2023-02-06T12:48:48.887Z,68.48
2023-02-06T12:52:05.357Z,68.92
2023-02-06T12:55:21.926Z,68.50
2023-02-06T12:58:48.385Z,68.71
2023-02-06T13:02:16.447Z,66.98
2023-02-06T13:05:31.454Z,69.38
2023-02-06T13:08:47.129Z,69.54
2023-02-06T13:12:09.617Z,67.62
2023-02-06T13:15:23.146Z,68.32
2023-02-06T13:18:50.611Z,68.13
2023-02-06T13:22:24.266Z,66.77
2023-02-06T13:25:49.425Z,66.81
2023-02-06T13:29:01.244Z,68.06
2023-02-06T13:32:35.352Z,68.44
2023-02-06T13:35:58.393Z,69.72
2023-02-06T13:39:23.597Z,70.00
2023-02-06T13:42:40.754Z,69.80
2023-02-06T13:45:57.660Z,69.91
2023-02-06T13:49:29.385Z,70.23
2023-02-06T13:52:48.838Z,70.48
2023-02-06T13:56:10.640Z,70.26
2023-02-06T13:59:25.583Z,71.78
2023-02-06T14:02:39.530Z,71.72
2023-02-06T14:06:00.258Z,71.29
2023-02-06T14:09:30.290Z,71.76
2023-02-06T14:12:56.717Z,71.75
2023-02-06T14:16:28.466Z,70.39
2023-02-06T14:19:47.590Z,70.45
2023-02-06T14:23:09.532Z,69.52
2023-02-06T14:26:32.153Z,68.27
2023-02-06T14:29:50.160Z,68.55
2023-02-06T14:33:12.000Z,69.49
2023-02-06T14:36:45.032Z,67.67
2023-02-06T14:39:56.269Z,68.20
2023-02-06T14:43:08.407Z,68.29
2023-02-06T14:46:20.640Z,68.05
2023-02-06T14:49:34.555Z,67.52
2023-02-06T14:52:49.068Z,66.84
2023-02-06T14:56:08.757Z,66.92
2023-02-06T14:59:19.248Z,67.32
2023-02-06T15:02:31.708Z,67.03
2023-02-06T15:05:41.651Z,67.20
2023-02-06T15:08:52.918Z,67.15
2023-02-06T15:12:17.603Z,65.78
2023-02-06T15:15:29.234Z,66.16
2023-02-06T15:18:38.898Z,67.39
2023-02-06T15:21:49.417Z,67.09
2023-02-06T15:25:11.771Z,67.89
2023-02-06T15:28:23.476Z,67.71
2023-02-06T15:31:33.337Z,68.22
2023-02-06T15:34:45.138Z,69.47
2023-02-06T15:37:56.600Z,69.64
2023-02-06T15:41:09.705Z,69.87
2023-02-06T15:44:27.482Z,71.13
2023-02-06T15:47:39.005Z,72.32
2023-02-06T15:50:58.596Z,73.50
2023-02-06T15:54:16.723Z,74.25
2023-02-06T15:57:32.888Z,74.58
2023-02-06T16:00:42.735Z,74.78
2023-02-06T16:03:54.555Z,74.17
2023-02-06T16:07:11.965Z,75.25
2023-02-06T16:10:25.143Z,76.42
2023-02-06T16:13:36.248Z,76.82
2023-02-06T16:16:57.394Z,77.34
2023-02-06T16:20:26.975Z,77.67
2023-02-06T16:23:45.425Z,78.78
2023-02-06T16:26:55.075Z,78.72
2023-02-06T16:30:06.445Z,79.95
2023-02-06T16:33:32.181Z,80.01
2023-02-06T16:36:41.772Z,80.17
2023-02-06T16:39:51.891Z,81.25
2023-02-06T16:43:01.687Z,81.25
2023-02-06T16:46:12.572Z,81.80
2023-02-06T16:49:23.316Z,81.98
2023-02-06T16:52:34.167Z,82.56
2023-02-06T16:55:44.161Z,83.19
2023-02-06T16:58:54.078Z,83.77
2023-02-06T17:02:11.170Z,84.60
2023-02-06T17:05:23.365Z,84.58
2023-02-06T17:08:39.072Z,84.84
2023-02-06T17:11:48.735Z,84.64
2023-02-06T17:14:58.840Z,84.71
2023-02-06T17:18:13.207Z,84.82
2023-02-06T17:21:24.920Z,84.75
2023-02-06T17:24:35.797Z,84.97
2023-02-06T17:27:45.579Z,84.89
2023-02-06T17:30:55.446Z,84.67
2023-02-06T17:34:06.380Z,85.20
2023-02-06T17:37:20.801Z,84.85
2023-02-06T17:40:33.869Z,85.54
2023-02-06T17:43:43.621Z,85.33
2023-02-06T17:46:53.342Z,85.20
2023-02-06T17:50:04.468Z,85.61
2023-02-06T17:53:15.279Z,81.49
2023-02-06T17:56:24.817Z,80.07
2023-02-06T17:59:34.485Z,79.56
2023-02-06T18:02:44.150Z,77.17
2023-02-06T18:05:59.489Z,78.21
2023-02-06T18:09:12.149Z,75.57
2023-02-06T18:12:21.947Z,76.12
2023-02-06T18:15:31.975Z,76.47
2023-02-06T18:18:44.514Z,76.38
2023-02-06T18:21:55.741Z,77.04
2023-02-06T18:25:05.997Z,77.24
2023-02-06T18:28:17.218Z,77.09
2023-02-06T18:31:29.676Z,76.79
2023-02-06T18:34:40.095Z,76.16
2023-02-06T18:37:51.238Z,76.92
2023-02-06T18:41:03.661Z,77.91
2023-02-06T18:44:13.642Z,79.23
2023-02-06T18:47:23.311Z,79.31
2023-02-06T18:50:34.062Z,80.55
2023-02-06T18:53:44.846Z,81.12
2023-02-06T18:56:55.062Z,79.04
2023-02-06T19:00:06.562Z,79.74
2023-02-06T19:03:16.280Z,81.01
2023-02-06T19:06:28.832Z,80.67
2023-02-06T19:09:40.629Z,80.94
2023-02-06T19:12:50.535Z,81.50
2023-02-06T19:16:05.799Z,81.88
2023-02-06T19:19:15.465Z,83.13
2023-02-06T19:22:25.141Z,83.68
2023-02-06T19:25:35.937Z,84.40
2023-02-06T19:28:46.066Z,84.89
2023-02-06T19:31:55.687Z,86.35
2023-02-06T19:35:06.400Z,86.36
2023-02-06T19:38:15.975Z,88.15
2023-02-06T19:41:28.513Z,87.62
2023-02-06T19:44:38.599Z,87.29
2023-02-06T19:47:48.274Z,86.02
2023-02-06T19:51:03.177Z,86.31
2023-02-06T19:54:14.212Z,86.61
2023-02-06T19:57:25.071Z,86.42
2023-02-06T20:00:35.266Z,85.86
2023-02-06T20:03:45.184Z,85.02
2023-02-06T20:06:55.857Z,84.10
2023-02-06T20:10:06.250Z,83.75
2023-02-06T20:13:17.136Z,83.76
2023-02-06T20:16:28.274Z,84.03
2023-02-06T20:19:37.984Z,82.98
2023-02-06T20:22:47.584Z,83.60
2023-02-06T20:25:57.496Z,83.47
2023-02-06T20:29:09.481Z,83.01
2023-02-06T20:32:19.697Z,82.94
2023-02-06T20:35:29.877Z,83.79
2023-02-06T20:38:39.685Z,83.84
2023-02-06T20:41:50.663Z,84.38
2023-02-06T20:45:01.597Z,83.32
2023-02-06T20:48:11.154Z,83.14
2023-02-06T20:51:20.858Z,83.27
2023-02-06T20:54:31.050Z,84.32
2023-02-06T20:57:41.144Z,83.44
2023-02-06T21:00:52.287Z,83.88
2023-02-06T21:04:04.234Z,84.71
2023-02-06T21:07:13.900Z,85.02
2023-02-06T21:10:23.781Z,86.16
2023-02-06T21:13:33.566Z,86.07
